Time;durP1;ratioP1;P1;durP2;ratioP2;P2;SDS_P1;SDS_P2;PMS_P1;PMS_P2;Temp;Humidity;BMP_temperature;BMP_pressure;BME280_temperature;BME280_humidity;BME280_pressure;Samples;Min_cycle;Max_cycle;Signal;HPM_P1;HPM_P2
2023/10/26 00:01:48;;;;;;;;;;;15.10;57.20;;;10.89;79.32;94042.41;5006564;28;19909;-46
2023/10/26 00:04:14;;;;;;;;;;;15.10;57.20;;;10.87;80.43;94056.06;5001243;28;19909;-45
2023/10/26 00:06:39;;;;;;;;;;;15.10;57.30;;;10.84;80.48;94040.69;5006071;28;20410;-44
2023/10/26 00:09:05;;;;;;;;;;;15.10;57.30;;;10.80;80.94;94042.34;4998835;28;19909;-45
2023/10/26 00:11:31;;;;;;;;;;;15.10;57.30;;;10.82;81.41;94040.19;5006691;28;19909;-46
2023/10/26 00:13:57;;;;;;;;;;;15.10;57.40;;;10.78;82.24;94039.22;5005332;28;19916;-51
2023/10/26 00:16:22;;;;;;;;;;;15.10;57.40;;;10.76;82.86;94033.41;5003162;28;19955;-47
2023/10/26 00:18:48;;;;;;;;;;;15.00;57.50;;;10.72;83.29;94023.63;5001729;28;19911;-47
2023/10/26 00:21:14;;;;;;;;;;;15.00;57.50;;;10.69;83.78;94032.25;5004443;28;20415;-44
2023/10/26 00:23:39;;;;;;;;;;;15.00;57.60;;;10.61;84.65;94031.09;5002635;28;20375;-47
2023/10/26 00:26:05;;;;;;;;;;;14.90;57.60;;;10.53;85.08;94021.16;5005129;28;20315;-46
2023/10/26 00:28:31;;;;;;;;;;;14.90;57.70;;;10.54;85.60;94028.06;5001172;28;20291;-45
2023/10/26 00:30:57;;;;;;;;;;;14.90;57.80;;;10.51;85.97;94018.03;5003859;28;20295;-49
2023/10/26 00:33:22;;;;;;;;;;;14.80;57.90;;;10.48;86.44;94023.94;5013924;28;19911;-46
2023/10/26 00:35:51;;;;;;;;;;;14.80;58.00;;;10.44;86.80;94023.78;5011498;28;19920;-47
2023/10/26 00:38:17;;;;;;;;;;;14.70;58.10;;;10.40;86.99;94012.94;5013735;28;19917;-44
2023/10/26 00:40:43;;;;;;;;;;;14.70;58.20;;;10.39;88.16;94010.56;5006006;28;19916;-48
2023/10/26 00:43:22;;;;;;;;;;;14.70;58.30;;;10.39;88.57;94011.34;5011692;28;19978;-47
2023/10/26 00:45:52;;;;;;;;;;;14.70;58.40;;;10.40;88.62;94014.78;5012159;28;20421;-48
2023/10/26 00:48:19;;;;;;;;;;;14.70;58.60;;;10.41;89.01;94008.41;5003502;28;19908;-46
2023/10/26 00:50:47;;;;;;;;;;;14.70;58.70;;;10.45;88.98;94001.38;5026603;28;19909;-48
2023/10/26 00:53:17;;;;;;;;;;;14.70;58.80;;;10.51;89.16;94005.50;5010946;28;20016;-46
2023/10/26 00:55:51;;;;;;;;;;;14.70;58.90;;;10.55;89.68;94009.13;5016529;28;19913;-49
2023/10/26 00:58:18;;;;;;;;;;;14.80;59.00;;;10.59;90.47;94007.44;5009031;28;20031;-47
2023/10/26 01:00:44;;;;;;;;;;;14.80;59.00;;;10.58;91.20;94002.41;5012151;28;19909;-48
2023/10/26 01:03:13;;;;;;;;;;;14.90;59.00;;;10.56;93.52;94012.56;5007894;28;20264;-48
2023/10/26 01:05:38;;;;;;;;;;;14.80;59.10;;;10.55;96.03;94001.13;5009394;28;19908;-48
2023/10/26 01:08:05;;;;;;;;;;;14.80;59.20;;;10.52;97.85;94009.72;5009617;28;19916;-48
2023/10/26 01:10:32;;;;;;;;;;;14.70;59.50;;;10.50;99.75;94006.59;5007955;28;20329;-49
2023/10/26 01:12:58;;;;;;;;;;;14.70;59.60;;;10.41;100.00;94013.72;5012464;28;19949;-47
2023/10/26 01:15:24;;;;;;;;;;;14.60;59.80;;;10.33;100.00;94006.44;5001608;28;19909;-50
2023/10/26 01:17:50;;;;;;;;;;;14.50;59.90;;;10.25;100.00;94005.28;5010603;28;19909;-49
2023/10/26 01:20:18;;;;;;;;;;;14.40;60.20;;;10.21;100.00;94014.91;5001638;28;19956;-46
2023/10/26 01:22:44;;;;;;;;;;;14.40;60.50;;;10.19;100.00;94015.22;5008529;28;19920;-47
2023/10/26 01:25:10;;;;;;;;;;;14.30;60.70;;;10.13;100.00;94008.44;5012698;28;19909;-48
2023/10/26 01:27:37;;;;;;;;;;;14.30;61.10;;;10.13;100.00;94010.31;5002846;28;19913;-46
2023/10/26 01:30:03;;;;;;;;;;;14.20;61.40;;;10.12;100.00;94016.72;5015170;28;19909;-45
2023/10/26 01:32:29;;;;;;;;;;;14.20;61.60;;;10.06;100.00;94010.72;5012079;28;19909;-46
2023/10/26 01:34:55;;;;;;;;;;;14.20;61.90;;;10.04;100.00;94015.56;5003991;28;20343;-52
2023/10/26 01:37:21;;;;;;;;;;;14.20;62.00;;;10.03;100.00;94007.84;5009794;28;19912;-46
2023/10/26 01:39:47;;;;;;;;;;;14.10;62.10;;;10.00;100.00;93998.63;5007788;28;19913;-45
2023/10/26 01:42:12;;;;;;;;;;;14.10;62.20;;;9.99;100.00;94001.56;5004898;28;19921;-45
2023/10/26 01:44:39;;;;;;;;;;;14.10;62.40;;;9.97;100.00;93991.25;5005978;28;19917;-48
2023/10/26 01:47:06;;;;;;;;;;;14.10;62.60;;;9.95;100.00;93985.44;5002543;28;19908;-46
2023/10/26 01:49:32;;;;;;;;;;;14.10;62.70;;;9.95;100.00;93982.75;5008371;28;19955;-46
2023/10/26 01:51:58;;;;;;;;;;;14.10;62.90;;;9.95;100.00;93977.44;5004297;28;19921;-46
2023/10/26 01:54:24;;;;;;;;;;;14.10;63.10;;;9.99;100.00;93972.31;5008055;28;19917;-46
2023/10/26 01:56:49;;;;;;;;;;;14.10;63.20;;;10.00;100.00;93979.19;5009115;28;20398;-52
2023/10/26 01:59:15;;;;;;;;;;;14.10;63.40;;;10.01;100.00;93973.59;5011563;28;19909;-45
2023/10/26 02:01:41;;;;;;;;;;;14.10;63.50;;;10.03;100.00;93970.63;5000299;28;19913;-50
2023/10/26 02:04:07;;;;;;;;;;;14.10;63.60;;;10.02;100.00;93969.06;5008551;28;19920;-46
2023/10/26 02:06:32;;;;;;;;;;;14.10;63.80;;;10.01;100.00;93965.63;5007777;28;19965;-45
2023/10/26 02:08:58;;;;;;;;;;;14.10;64.00;;;10.04;100.00;93966.88;5001226;28;19948;-45
2023/10/26 02:11:24;;;;;;;;;;;14.10;64.00;;;10.06;100.00;93959.38;5007934;28;19909;-46
2023/10/26 02:13:50;;;;;;;;;;;14.10;64.10;;;10.05;100.00;93963.91;5003411;28;19909;-48
2023/10/26 02:16:18;;;;;;;;;;;14.20;64.30;;;10.05;100.00;93955.94;5003897;28;19913;-48
2023/10/26 02:18:44;;;;;;;;;;;14.20;64.30;;;10.07;100.00;93953.78;5005227;28;20290;-50
2023/10/26 02:21:10;;;;;;;;;;;14.20;64.40;;;10.10;100.00;93952.38;5000904;28;20012;-45
2023/10/26 02:23:38;;;;;;;;;;;14.20;64.50;;;10.10;100.00;93950.50;5005889;28;20054;-45
2023/10/26 02:26:04;;;;;;;;;;;14.20;64.50;;;10.10;100.00;93953.16;5007625;28;20423;-45
2023/10/26 02:28:29;;;;;;;;;;;14.20;64.50;;;10.12;100.00;93947.53;4997115;28;20039;-47
2023/10/26 02:30:55;;;;;;;;;;;14.20;65.30;;;10.11;100.00;93941.44;4998854;28;19916;-48
2023/10/26 02:33:21;;;;;;;;;;;14.30;64.50;;;10.10;100.00;93936.44;5008674;28;19916;-46
2023/10/26 02:35:47;;;;;;;;;;;14.30;64.50;;;10.08;100.00;93927.94;5011103;28;19909;-49
2023/10/26 02:38:13;;;;;;;;;;;14.30;64.50;;;10.08;100.00;93934.06;4999876;28;19932;-50
2023/10/26 02:40:39;;;;;;;;;;;14.30;64.40;;;10.06;100.00;93936.25;5006318;28;19909;-47
2023/10/26 02:43:05;;;;;;;;;;;14.30;64.40;;;10.06;100.00;93933.59;5000458;28;19921;-46
2023/10/26 02:45:31;;;;;;;;;;;14.40;64.40;;;10.04;100.00;93932.31;5004286;28;19916;-50
2023/10/26 02:48:02;;;;;;;;;;;14.40;64.50;;;10.03;100.00;93936.03;5012012;28;19909;-49
2023/10/26 02:50:28;;;;;;;;;;;14.40;64.40;;;10.01;100.00;93932.91;5002683;28;19917;-46
2023/10/26 02:52:54;;;;;;;;;;;14.40;64.40;;;10.01;100.00;93931.03;4998623;28;19913;-45
2023/10/26 02:55:20;;;;;;;;;;;14.50;64.50;;;10.01;100.00;93924.94;5003604;28;19931;-49
2023/10/26 02:57:46;;;;;;;;;;;14.50;64.50;;;10.01;100.00;93927.59;5005993;28;19931;-47
2023/10/26 03:00:14;;;;;;;;;;;14.40;64.40;;;9.99;100.00;93924.44;5006764;28;19963;-48
2023/10/26 03:02:40;;;;;;;;;;;14.50;64.50;;;9.98;100.00;93920.22;5006547;28;20006;-46
2023/10/26 03:05:06;;;;;;;;;;;14.50;64.50;;;9.97;100.00;93927.41;5001561;28;19945;-46
2023/10/26 03:07:31;;;;;;;;;;;14.50;64.60;;;9.97;100.00;93924.75;5008050;28;19917;-48
2023/10/26 03:09:57;;;;;;;;;;;14.50;64.60;;;9.96;100.00;93925.81;4998874;28;19913;-51
2023/10/26 03:12:23;;;;;;;;;;;14.50;64.70;;;9.96;100.00;93921.31;5009890;28;19962;-46
2023/10/26 03:14:49;;;;;;;;;;;14.50;64.70;;;9.90;100.00;93921.69;5007671;28;19909;-46
2023/10/26 03:17:17;;;;;;;;;;;14.50;64.70;;;9.85;100.00;93919.16;4998500;28;19909;-46
2023/10/26 03:19:43;;;;;;;;;;;14.40;64.60;;;9.89;100.00;93915.59;5007040;28;19962;-46
2023/10/26 03:22:10;;;;;;;;;;;14.40;64.70;;;9.93;100.00;93919.25;5001772;28;19916;-45
2023/10/26 03:24:37;;;;;;;;;;;14.40;64.80;;;9.92;100.00;93917.66;5004480;28;20063;-47
2023/10/26 03:27:03;;;;;;;;;;;14.40;64.90;;;9.92;100.00;93919.53;5000331;28;20000;-50
2023/10/26 03:29:29;;;;;;;;;;;14.40;64.90;;;9.93;100.00;93916.59;5005109;28;19909;-48
2023/10/26 03:31:55;;;;;;;;;;;14.40;64.90;;;9.92;100.00;93919.53;5002200;28;19936;-48
2023/10/26 03:34:20;;;;;;;;;;;14.40;65.00;;;9.92;100.00;93916.88;5003445;28;19909;-45
2023/10/26 03:36:46;;;;;;;;;;;14.40;65.00;;;9.91;100.00;93905.44;5012318;28;20426;-46
2023/10/26 03:39:12;;;;;;;;;;;14.40;65.00;;;9.91;100.00;93913.44;5012058;28;20272;-48
2023/10/26 03:41:38;;;;;;;;;;;14.50;65.10;;;9.89;100.00;93907.63;5011419;28;19999;-47
2023/10/26 03:44:03;;;;;;;;;;;14.40;65.10;;;9.89;100.00;93899.63;5012041;28;19913;-47
2023/10/26 03:46:29;;;;;;;;;;;14.40;65.10;;;9.86;100.00;93902.13;5011007;28;19920;-46
2023/10/26 03:48:55;;;;;;;;;;;14.40;65.20;;;9.90;100.00;93908.41;5012117;28;19915;-47
2023/10/26 03:51:21;;;;;;;;;;;14.40;65.20;;;9.91;100.00;93896.69;5011966;28;19909;-46
2023/10/26 03:53:47;;;;;;;;;;;14.40;65.30;;;9.92;100.00;93898.25;5006453;28;19921;-46
2023/10/26 03:56:12;;;;;;;;;;;14.40;65.30;;;9.92;100.00;93900.91;4996308;28;19910;-48
2023/10/26 03:58:38;;;;;;;;;;;14.40;65.30;;;9.93;100.00;93897.16;5011206;28;19916;-47
2023/10/26 04:01:05;;;;;;;;;;;14.40;65.40;;;9.93;100.00;93897.97;5007815;28;19992;-49
2023/10/26 04:03:31;;;;;;;;;;;14.50;65.50;;;9.93;100.00;93900.63;5011140;28;19959;-46
2023/10/26 04:05:56;;;;;;;;;;;14.40;65.40;;;9.92;100.00;93899.03;5011032;28;19913;-46
2023/10/26 04:08:22;;;;;;;;;;;14.40;65.50;;;9.95;100.00;93895.00;5011964;28;19909;-48
2023/10/26 04:10:49;;;;;;;;;;;14.50;65.60;;;9.93;100.00;93889.19;5011111;28;20405;-46
2023/10/26 04:13:15;;;;;;;;;;;14.50;65.60;;;9.94;100.00;93894.22;5011677;28;20000;-46
2023/10/26 04:15:40;;;;;;;;;;;14.50;65.60;;;9.93;100.00;93897.97;5010573;28;20007;-46
2023/10/26 04:18:06;;;;;;;;;;;14.50;65.60;;;9.92;100.00;93892.94;5001549;28;19920;-46
2023/10/26 04:20:32;;;;;;;;;;;14.50;65.70;;;9.92;100.00;93893.72;5011755;28;19962;-47
2023/10/26 04:22:58;;;;;;;;;;;14.50;65.60;;;9.94;100.00;93901.41;5010559;28;20280;-51
2023/10/26 04:25:28;;;;;;;;;;;14.50;65.70;;;9.94;100.00;93888.88;5011578;28;20011;-46
2023/10/26 04:27:55;;;;;;;;;;;14.50;65.70;;;9.94;100.00;93888.09;5010670;28;20341;-47
2023/10/26 04:30:22;;;;;;;;;;;14.50;65.80;;;9.96;100.00;93891.22;5003454;28;19913;-46
2023/10/26 04:32:48;;;;;;;;;;;14.50;65.80;;;9.97;100.00;93884.84;5005820;28;19921;-47
2023/10/26 04:35:14;;;;;;;;;;;14.50;65.80;;;9.97;100.00;93882.19;5001432;28;19932;-47
2023/10/26 04:37:40;;;;;;;;;;;14.50;65.80;;;9.98;100.00;93885.63;5011652;28;19909;-46
2023/10/26 04:40:06;;;;;;;;;;;14.50;65.80;;;9.98;100.00;93882.97;5007484;28;19909;-46
2023/10/26 04:42:32;;;;;;;;;;;14.50;65.80;;;9.98;100.00;93873.13;5011513;28;19913;-47
2023/10/26 04:44:58;;;;;;;;;;;14.60;65.90;;;9.94;100.00;93872.16;5011757;28;20067;-48
2023/10/26 04:47:24;;;;;;;;;;;14.50;65.80;;;9.95;100.00;93869.19;5007606;28;19909;-46
2023/10/26 04:49:50;;;;;;;;;;;14.50;65.80;;;9.95;100.00;93857.75;5011539;28;19916;-46
2023/10/26 04:52:18;;;;;;;;;;;14.60;65.90;;;9.94;100.00;93854.31;5007864;28;19916;-46
2023/10/26 04:54:44;;;;;;;;;;;14.50;65.90;;;9.93;100.00;93858.06;5000125;28;20059;-47
2023/10/26 04:57:10;;;;;;;;;;;14.50;65.90;;;9.92;100.00;93853.03;5011264;28;19909;-49
2023/10/26 04:59:36;;;;;;;;;;;14.50;65.90;;;9.92;100.00;93853.81;5006618;28;19951;-51
2023/10/26 05:02:01;;;;;;;;;;;14.50;65.90;;;9.91;100.00;93846.94;5011286;28;19964;-46
2023/10/26 05:04:27;;;;;;;;;;;14.50;65.90;;;9.92;100.00;93847.72;5010125;28;19916;-46
2023/10/26 05:06:53;;;;;;;;;;;14.50;66.00;;;9.92;100.00;93839.75;5011463;28;19909;-46
2023/10/26 05:09:19;;;;;;;;;;;14.50;66.00;;;9.94;100.00;93841.00;5010944;28;20012;-46
2023/10/26 05:11:45;;;;;;;;;;;14.50;66.10;;;9.94;100.00;93846.34;5010045;28;19999;-46
2023/10/26 05:14:11;;;;;;;;;;;14.50;66.10;;;9.95;100.00;93844.47;5011085;28;20022;-46
2023/10/26 05:16:37;;;;;;;;;;;14.50;66.10;;;9.94;100.00;93849.00;5013557;28;19960;-47
2023/10/26 05:19:03;;;;;;;;;;;14.50;66.20;;;9.96;100.00;93846.81;5010931;28;20364;-47
2023/10/26 05:21:29;;;;;;;;;;;14.60;66.20;;;9.96;100.00;93838.84;5005167;28;19940;-47
2023/10/26 05:23:55;;;;;;;;;;;14.60;66.20;;;9.99;100.00;93847.28;5004661;28;20326;-46
2023/10/26 05:26:20;;;;;;;;;;;14.60;66.20;;;9.98;100.00;93837.75;5008915;28;19913;-46
2023/10/26 05:28:47;;;;;;;;;;;14.50;66.20;;;9.98;100.00;93825.22;5003024;28;19971;-46
2023/10/26 05:31:13;;;;;;;;;;;14.50;66.30;;;9.94;100.00;93821.63;5006452;28;19955;-46
2023/10/26 05:33:38;;;;;;;;;;;14.50;66.30;;;9.95;100.00;93826.63;5009846;28;20001;-46
2023/10/26 05:36:05;;;;;;;;;;;14.50;66.30;;;9.95;100.00;93833.81;5014392;28;19921;-46
2023/10/26 05:38:31;;;;;;;;;;;14.50;66.30;;;9.96;100.00;93817.56;5014581;28;19909;-48
2023/10/26 05:40:57;;;;;;;;;;;14.50;66.40;;;9.95;100.00;93815.97;5013589;28;19913;-47
2023/10/26 05:43:23;;;;;;;;;;;14.50;66.40;;;9.94;100.00;93821.63;5009156;28;19920;-45
2023/10/26 05:45:49;;;;;;;;;;;14.50;66.50;;;9.96;100.00;93828.22;5013743;28;19920;-48
2023/10/26 05:48:16;;;;;;;;;;;14.50;66.50;;;9.95;100.00;93836.47;5014259;28;19909;-48
2023/10/26 05:50:43;;;;;;;;;;;14.50;66.60;;;9.83;100.00;93833.56;5014351;28;19909;-47
2023/10/26 05:53:10;;;;;;;;;;;14.40;66.50;;;9.89;100.00;93832.38;5013137;28;19921;-46
2023/10/26 05:55:37;;;;;;;;;;;14.40;66.60;;;9.90;100.00;93815.31;5008255;28;19909;-47
2023/10/26 05:58:03;;;;;;;;;;;14.40;66.60;;;9.91;100.00;93819.56;5013351;28;19920;-46
2023/10/26 06:00:29;;;;;;;;;;;14.40;66.70;;;9.89;100.00;93825.16;5004457;28;19956;-45
2023/10/26 06:02:55;;;;;;;;;;;14.40;66.80;;;9.89;100.00;93817.19;5010068;28;19913;-45
2023/10/26 06:05:21;;;;;;;;;;;14.40;66.80;;;9.86;100.00;93822.34;5013108;28;19916;-47
2023/10/26 06:07:47;;;;;;;;;;;14.30;66.90;;;9.88;100.00;93820.16;5014056;28;20386;-45
2023/10/26 06:10:12;;;;;;;;;;;14.30;66.90;;;9.87;100.00;93814.06;5012884;28;19913;-45
2023/10/26 06:12:38;;;;;;;;;;;14.30;66.90;;;9.86;100.00;93827.66;5013987;28;19909;-48
2023/10/26 06:15:05;;;;;;;;;;;14.30;67.00;;;9.85;100.00;93824.22;5013903;28;20414;-45
2023/10/26 06:17:31;;;;;;;;;;;14.30;67.10;;;9.83;100.00;93826.38;5010326;28;20443;-46
2023/10/26 06:19:57;;;;;;;;;;;14.30;67.10;;;9.80;100.00;93826.97;5014100;28;20004;-46
2023/10/26 06:22:22;;;;;;;;;;;14.30;67.10;;;9.84;100.00;93819.19;5011595;28;19960;-47
2023/10/26 06:24:48;;;;;;;;;;;14.30;67.20;;;9.80;100.00;93824.31;5013756;28;19908;-45
2023/10/26 06:27:14;;;;;;;;;;;14.20;67.20;;;9.83;100.00;93817.63;5012768;28;19909;-46
2023/10/26 06:29:44;;;;;;;;;;;14.20;67.30;;;9.69;100.00;93813.16;5006885;28;19913;-46
2023/10/26 06:32:12;;;;;;;;;;;14.20;67.30;;;9.71;100.00;93807.50;5011898;28;20368;-46
2023/10/26 06:34:37;;;;;;;;;;;14.20;67.30;;;9.73;100.00;93814.09;5007267;28;19910;-46
2023/10/26 06:37:03;;;;;;;;;;;14.20;67.40;;;9.73;100.00;93808.78;5010911;28;19915;-50
2023/10/26 06:39:29;;;;;;;;;;;14.20;67.40;;;9.79;100.00;93829.94;5013744;28;20409;-48
2023/10/26 06:41:56;;;;;;;;;;;14.20;67.50;;;9.79;100.00;93817.44;5012823;28;19917;-45
2023/10/26 06:44:23;;;;;;;;;;;14.20;67.50;;;9.81;100.00;93830.41;5013427;28;19916;-46
2023/10/26 06:46:49;;;;;;;;;;;14.20;67.50;;;9.80;100.00;93842.16;5012149;28;19981;-46
2023/10/26 06:49:14;;;;;;;;;;;14.20;67.50;;;9.83;100.00;93837.00;5013897;28;20372;-47
2023/10/26 06:51:40;;;;;;;;;;;14.20;67.60;;;9.82;100.00;93819.50;5012495;28;19916;-47
2023/10/26 06:54:06;;;;;;;;;;;14.20;67.70;;;9.82;100.00;93813.41;5006948;28;19921;-49
2023/10/26 06:56:32;;;;;;;;;;;14.20;67.70;;;9.84;100.00;93803.22;5013140;28;19955;-48
2023/10/26 06:58:57;;;;;;;;;;;14.20;67.80;;;9.83;100.00;93828.25;5011736;28;19915;-46
2023/10/26 07:01:23;;;;;;;;;;;14.20;67.80;;;9.81;100.00;93839.19;5008794;28;19909;-48
2023/10/26 07:03:51;;;;;;;;;;;14.20;67.80;;;9.82;100.00;93858.59;5012250;28;19917;-46
2023/10/26 07:06:17;;;;;;;;;;;14.20;67.90;;;9.78;100.00;93829.16;5012910;28;19936;-46
2023/10/26 07:08:43;;;;;;;;;;;14.20;68.00;;;9.84;100.00;93833.28;5012891;28;19909;-49
2023/10/26 07:11:09;;;;;;;;;;;14.10;68.10;;;9.85;100.00;93824.22;5011765;28;19931;-47
2023/10/26 07:13:35;;;;;;;;;;;14.20;68.30;;;9.90;100.00;93818.78;5012816;28;19908;-48
2023/10/26 07:16:03;;;;;;;;;;;14.20;68.30;;;9.93;100.00;93812.03;5009617;28;19932;-48
2023/10/26 07:18:29;;;;;;;;;;;14.20;68.30;;;9.93;100.00;93806.72;5012717;28;19909;-48
2023/10/26 07:20:55;;;;;;;;;;;14.30;68.20;;;10.00;100.00;93811.63;5012622;28;19955;-47
2023/10/26 07:23:21;;;;;;;;;;;14.40;68.30;;;10.05;100.00;93811.50;5011329;28;19917;-46
2023/10/26 07:25:47;;;;;;;;;;;14.50;68.20;;;10.06;100.00;93808.56;5008948;28;19913;-48
2023/10/26 07:28:13;;;;;;;;;;;14.50;68.10;;;10.16;100.00;93820.81;5011082;28;19954;-47
2023/10/26 07:30:44;;;;;;;;;;;14.60;68.10;;;10.18;100.00;93813.28;5004031;28;19944;-49
2023/10/26 07:33:10;;;;;;;;;;;14.70;68.10;;;10.19;100.00;93812.22;5012178;28;19909;-53
2023/10/26 07:35:43;;;;;;;;;;;14.80;68.10;;;10.25;100.00;93821.66;5003030;28;19965;-49
2023/10/26 07:38:09;;;;;;;;;;;14.80;68.00;;;10.30;100.00;93826.06;5012262;28;20178;-48
2023/10/26 07:40:37;;;;;;;;;;;14.90;68.10;;;10.34;100.00;93843.00;5011015;28;19909;-47
2023/10/26 07:43:04;;;;;;;;;;;14.90;68.00;;;10.44;100.00;93834.78;5011785;28;20351;-49
2023/10/26 07:45:30;;;;;;;;;;;15.00;68.00;;;10.52;100.00;93841.22;5011981;28;19909;-50
2023/10/26 07:47:58;;;;;;;;;;;15.00;68.10;;;10.54;100.00;93844.38;5011153;28;20421;-48
2023/10/26 07:50:24;;;;;;;;;;;15.10;68.10;;;10.54;100.00;93845.16;5012061;28;19909;-47
2023/10/26 07:52:50;;;;;;;;;;;15.10;68.10;;;10.62;100.00;93841.75;5010755;28;19911;-47
2023/10/26 07:55:17;;;;;;;;;;;15.20;68.10;;;10.70;100.00;93847.41;5005751;28;19986;-46
2023/10/26 07:57:42;;;;;;;;;;;15.30;68.20;;;10.74;100.00;93859.03;5011777;28;20383;-48
2023/10/26 08:00:11;;;;;;;;;;;15.40;68.20;;;10.77;100.00;93861.84;5008015;28;19915;-50
2023/10/26 08:02:37;;;;;;;;;;;15.40;68.10;;;10.74;100.00;93859.81;5011781;28;19917;-49
2023/10/26 08:05:03;;;;;;;;;;;15.50;68.10;;;10.79;100.00;93864.22;5008370;28;19909;-47
2023/10/26 08:07:30;;;;;;;;;;;15.50;68.10;;;10.87;100.00;93858.13;5011958;28;19909;-47
2023/10/26 08:09:56;;;;;;;;;;;15.50;68.20;;;10.92;100.00;93846.56;5008645;28;19919;-50
2023/10/26 08:12:23;;;;;;;;;;;15.50;68.10;;;10.95;100.00;93837.97;5011978;28;19920;-49
2023/10/26 08:14:51;;;;;;;;;;;15.60;69.00;;;11.07;100.00;93830.94;4995942;28;19916;-49
2023/10/26 08:17:17;;;;;;;;;;;15.70;68.20;;;11.25;100.00;93842.44;5008938;28;19952;-48
2023/10/26 08:19:43;;;;;;;;;;;15.90;68.10;;;11.40;100.00;93838.53;5010688;28;19998;-49
2023/10/26 08:22:10;;;;;;;;;;;16.20;68.00;;;11.56;100.00;93847.66;5025251;28;20408;-49
2023/10/26 08:24:36;;;;;;;;;;;16.50;67.80;;;11.82;100.00;93860.22;5011406;28;20011;-49
2023/10/26 08:27:03;;;;;;;;;;;16.80;67.70;;;11.93;100.00;93856.16;5011609;28;19983;-51
2023/10/26 08:29:29;;;;;;;;;;;17.10;67.50;;;12.13;100.00;93864.66;5006708;28;19910;-47
2023/10/26 08:31:56;;;;;;;;;;;17.30;67.40;;;12.22;100.00;93868.06;5007819;28;19909;-48
2023/10/26 08:34:22;;;;;;;;;;;17.40;67.10;;;12.37;100.00;93880.16;5010686;28;19916;-48
2023/10/26 08:36:47;;;;;;;;;;;17.60;67.00;;;12.55;100.00;93873.69;5010439;28;19909;-48
2023/10/26 08:39:13;;;;;;;;;;;17.80;66.90;;;12.68;100.00;93875.38;5011236;28;19909;-47
2023/10/26 08:41:50;;;;;;;;;;;17.90;66.70;;;12.86;100.00;93873.44;5010788;28;19952;-48
2023/10/26 08:44:17;;;;;;;;;;;18.00;66.70;;;12.85;100.00;93881.75;5010228;28;20047;-47
2023/10/26 08:46:50;;;;;;;;;;;18.10;66.60;;;12.90;100.00;93886.94;5010558;28;19988;-47
2023/10/26 08:49:17;;;;;;;;;;;18.20;66.20;;;13.04;100.00;93897.44;5010402;28;20397;-47
2023/10/26 08:51:43;;;;;;;;;;;18.30;66.00;;;13.23;100.00;93891.69;5014031;28;20051;-51
2023/10/26 08:54:09;;;;;;;;;;;18.50;66.00;;;13.36;100.00;93878.13;5008928;28;20012;-49
2023/10/26 08:56:35;;;;;;;;;;;18.60;66.60;;;13.49;100.00;93879.00;5015311;28;19916;-48
2023/10/26 08:59:03;;;;;;;;;;;18.80;65.80;;;13.59;100.00;93886.63;5013928;28;19909;-52
2023/10/26 09:01:29;;;;;;;;;;;18.90;65.60;;;13.67;100.00;93893.06;5006284;28;20309;-49
2023/10/26 09:03:54;;;;;;;;;;;19.00;65.60;;;13.73;100.00;93888.31;5007428;28;19913;-52
2023/10/26 09:06:20;;;;;;;;;;;19.20;65.50;;;13.83;100.00;93899.41;5004887;28;19916;-48
2023/10/26 09:09:03;;;;;;;;;;;19.20;65.40;;;14.00;100.00;93906.50;5004536;28;19909;-50
2023/10/26 09:11:30;;;;;;;;;;;19.30;65.40;;;14.17;100.00;93910.97;5012017;28;19917;-51
2023/10/26 09:14:16;;;;;;;;;;;19.50;65.40;;;14.31;100.00;93911.47;5011479;28;19913;-51
2023/10/26 09:16:44;;;;;;;;;;;19.70;65.40;;;14.50;100.00;93902.94;5005487;28;19916;-50
2023/10/26 09:19:16;;;;;;;;;;;20.00;65.20;;;14.76;100.00;93910.78;5011450;28;19920;-49
2023/10/26 09:21:58;;;;;;;;;;;20.40;65.00;;;14.84;100.00;93911.78;5001022;28;19916;-47
2023/10/26 09:24:27;;;;;;;;;;;20.60;64.60;;;15.08;100.00;93903.03;5004423;28;20403;-48
2023/10/26 09:26:55;;;;;;;;;;;20.80;64.30;;;15.19;100.00;93898.00;5004962;28;19913;-49
2023/10/26 09:29:41;;;;;;;;;;;21.00;64.00;;;15.19;100.00;93884.59;5002885;28;19909;-51
2023/10/26 09:32:08;;;;;;;;;;;21.20;63.60;;;15.16;100.00;93882.56;4996429;28;19955;-51
2023/10/26 09:34:43;;;;;;;;;;;21.30;63.10;;;15.34;100.00;93861.69;5004814;28;19964;-50
2023/10/26 09:37:10;;;;;;;;;;;21.30;62.60;;;15.39;100.00;93862.25;5006608;28;19953;-51
2023/10/26 09:39:38;;;;;;;;;;;21.40;62.40;;;15.46;99.70;93873.19;5014366;28;20056;-49
2023/10/26 09:42:10;;;;;;;;;;;21.50;62.30;;;15.47;100.00;93879.34;5011935;28;20397;-49
2023/10/26 09:44:37;;;;;;;;;;;21.50;61.90;;;15.47;99.32;93900.81;5005437;28;19913;-51
2023/10/26 09:47:04;;;;;;;;;;;21.60;61.60;;;15.49;100.00;93903.94;5011083;28;19909;-48
2023/10/26 09:49:30;;;;;;;;;;;21.60;61.40;;;15.45;99.01;93906.53;5013550;28;19920;-49
2023/10/26 09:51:58;;;;;;;;;;;21.50;61.30;;;15.47;100.00;93900.81;5000238;28;19913;-50
2023/10/26 09:54:36;;;;;;;;;;;21.50;61.20;;;15.53;100.00;93907.50;5003789;28;19924;-51
2023/10/26 09:57:15;;;;;;;;;;;21.40;61.30;;;15.44;100.00;93914.88;5001801;28;20015;-49
2023/10/26 09:59:41;;;;;;;;;;;21.40;61.10;;;15.45;100.00;93903.06;5002366;28;19917;-48
2023/10/26 10:02:15;;;;;;;;;;;21.40;61.10;;;15.43;99.49;93903.38;5010615;28;20012;-49
2023/10/26 10:04:42;;;;;;;;;;;21.40;60.90;;;15.33;100.00;93911.88;5006260;28;19912;-52
2023/10/26 10:07:08;;;;;;;;;;;21.30;60.70;;;15.25;100.00;93902.03;5007628;28;19981;-47
2023/10/26 10:10:08;;;;;;;;;;;21.10;60.70;;;15.09;100.00;93909.16;5009327;28;20351;-51
2023/10/26 10:12:36;;;;;;;;;;;20.90;61.00;;;15.00;100.00;93895.84;4997861;28;19916;-53
2023/10/26 10:15:09;;;;;;;;;;;20.60;61.10;;;14.98;100.00;93896.19;5005656;28;19944;-50
2023/10/26 10:17:44;;;;;;;;;;;20.40;61.20;;;14.67;100.00;93902.03;5003365;28;19909;-50
2023/10/26 10:20:18;;;;;;;;;;;20.10;61.40;;;14.43;100.00;93892.00;5000899;28;19909;-48
2023/10/26 10:22:44;;;;;;;;;;;19.80;61.60;;;14.38;100.00;93910.94;5003169;28;20454;-49
2023/10/26 10:25:11;;;;;;;;;;;19.50;62.10;;;14.23;100.00;93917.69;5005195;28;19963;-52
2023/10/26 10:27:38;;;;;;;;;;;19.30;62.40;;;14.11;100.00;93899.66;5012649;28;19916;-51
2023/10/26 10:30:09;;;;;;;;;;;19.10;62.70;;;14.03;100.00;93891.69;5001532;28;19909;-49
2023/10/26 10:32:47;;;;;;;;;;;18.90;63.00;;;13.79;100.00;93895.81;5013494;28;19909;-48
2023/10/26 10:35:21;;;;;;;;;;;18.80;63.20;;;13.59;100.00;93893.88;5012621;28;20031;-49
2023/10/26 10:38:15;;;;;;;;;;;18.60;63.30;;;13.34;100.00;93882.22;5013751;28;19940;-53
2023/10/26 10:41:07;;;;;;;;;;;18.50;63.40;;;13.38;100.00;93899.97;5012640;28;20304;-51
2023/10/26 10:43:47;;;;;;;;;;;18.30;63.50;;;13.32;100.00;93900.50;5013135;28;20372;-49
2023/10/26 10:46:20;;;;;;;;;;;18.30;63.80;;;13.32;100.00;93887.13;5012470;28;20322;-48
2023/10/26 10:49:07;;;;;;;;;;;18.30;63.90;;;13.31;100.00;93889.00;5013368;28;19958;-49
2023/10/26 10:51:41;;;;;;;;;;;18.20;64.00;;;13.20;100.00;93890.44;5013329;28;19909;-49
2023/10/26 10:54:10;;;;;;;;;;;18.10;64.10;;;13.21;100.00;93883.97;5006186;28;19925;-51
2023/10/26 10:56:42;;;;;;;;;;;18.00;64.30;;;13.13;100.00;93898.16;5008012;28;20505;-52
2023/10/26 10:59:21;;;;;;;;;;;18.00;64.40;;;13.13;100.00;93898.16;4995051;28;20103;-52
2023/10/26 11:01:49;;;;;;;;;;;17.90;64.50;;;13.13;100.00;93885.59;4992453;28;20007;-50
2023/10/26 11:04:15;;;;;;;;;;;18.00;64.60;;;13.13;100.00;93874.91;4997444;28;19913;-51
2023/10/26 11:06:47;;;;;;;;;;;18.10;64.60;;;13.16;100.00;93857.41;4993179;28;19909;-48
2023/10/26 11:09:29;;;;;;;;;;;18.30;64.60;;;13.25;100.00;93862.75;4994052;28;20008;-49
2023/10/26 11:12:07;;;;;;;;;;;18.50;64.30;;;13.35;100.00;93849.00;4993077;28;19909;-50
2023/10/26 11:14:33;;;;;;;;;;;18.70;64.20;;;13.53;100.00;93839.00;4994887;28;19999;-49
2023/10/26 11:17:00;;;;;;;;;;;18.90;64.00;;;13.72;100.00;93836.66;5002483;28;20380;-53